createdAt,value
2023-10-30T00:00:59.415Z,99.99
2023-10-30T00:01:59.380Z,99.99
2023-10-30T00:02:59.429Z,99.99
2023-10-30T00:03:59.386Z,99.99
2023-10-30T00:04:59.301Z,99.99
2023-10-30T00:05:59.362Z,99.99
2023-10-30T00:06:59.279Z,99.99
2023-10-30T00:07:59.259Z,99.99
2023-10-30T00:08:59.319Z,99.99
2023-10-30T00:09:59.256Z,99.99
2023-10-30T00:10:59.632Z,99.99
2023-10-30T00:11:59.298Z,99.99
2023-10-30T00:12:59.225Z,99.99
2023-10-30T00:13:59.186Z,99.99
2023-10-30T00:14:59.221Z,99.99
2023-10-30T00:15:59.169Z,99.99
2023-10-30T00:16:59.206Z,99.99
2023-10-30T00:17:59.201Z,99.99
2023-10-30T00:18:59.145Z,99.99
2023-10-30T00:19:59.150Z,99.99
2023-10-30T00:20:59.244Z,99.99
2023-10-30T00:21:59.106Z,99.99
2023-10-30T00:22:59.149Z,99.99
2023-10-30T00:23:59.127Z,99.99
2023-10-30T00:24:59.110Z,99.99
2023-10-30T00:25:59.079Z,99.99
2023-10-30T00:26:59.114Z,99.99
2023-10-30T00:27:59.054Z,99.99
2023-10-30T00:28:59.060Z,99.99
2023-10-30T00:29:59.046Z,99.99
2023-10-30T00:30:59.040Z,99.99
2023-10-30T00:31:59.006Z,99.99
2023-10-30T00:32:59.030Z,99.99
2023-10-30T00:33:59.002Z,99.99
2023-10-30T00:34:58.975Z,99.99
2023-10-30T00:35:58.957Z,99.99
2023-10-30T00:36:58.968Z,99.99
2023-10-30T00:37:59.021Z,99.99
2023-10-30T00:38:58.987Z,99.99
2023-10-30T00:39:58.918Z,99.99
2023-10-30T00:40:58.931Z,99.99
2023-10-30T00:41:58.889Z,99.99
2023-10-30T00:42:58.980Z,99.99
2023-10-30T00:43:58.880Z,99.99
2023-10-30T00:44:58.865Z,99.99
2023-10-30T00:45:58.865Z,99.99
2023-10-30T00:46:58.846Z,99.99
2023-10-30T00:47:58.966Z,99.99
2023-10-30T00:48:58.840Z,99.99
2023-10-30T00:49:58.817Z,99.99
2023-10-30T00:50:58.806Z,99.99
2023-10-30T00:51:58.857Z,99.99
2023-10-30T00:52:58.799Z,99.99
2023-10-30T00:53:58.764Z,99.99
2023-10-30T00:54:58.802Z,99.99
2023-10-30T00:55:58.750Z,99.99
2023-10-30T00:56:58.762Z,99.99
2023-10-30T00:57:58.729Z,99.99
2023-10-30T00:58:58.722Z,99.99
2023-10-30T00:59:58.706Z,99.99
2023-10-30T01:00:58.764Z,99.99
2023-10-30T01:01:58.906Z,99.99
2023-10-30T01:02:58.833Z,99.99
2023-10-30T01:03:58.762Z,99.99
2023-10-30T01:04:59.029Z,99.99
2023-10-30T01:05:58.688Z,99.99
2023-10-30T01:06:58.679Z,99.99
2023-10-30T01:07:58.611Z,99.99
2023-10-30T01:08:58.615Z,99.99
2023-10-30T01:09:58.609Z,99.99
2023-10-30T01:10:58.653Z,99.99
2023-10-30T01:11:58.570Z,99.99
2023-10-30T01:12:58.577Z,99.99
2023-10-30T01:13:58.563Z,99.99
2023-10-30T01:14:58.557Z,99.99
2023-10-30T01:15:58.562Z,99.99
2023-10-30T01:16:58.535Z,99.99
2023-10-30T01:17:58.541Z,99.99
2023-10-30T01:18:58.526Z,99.99
2023-10-30T01:19:58.515Z,99.99
2023-10-30T01:20:58.505Z,99.99
2023-10-30T01:21:58.476Z,99.99
2023-10-30T01:22:58.458Z,99.99
2023-10-30T01:23:58.454Z,99.99
2023-10-30T01:24:58.468Z,99.99
2023-10-30T01:25:58.419Z,99.99
2023-10-30T01:26:58.420Z,99.99
2023-10-30T01:27:58.409Z,99.99
2023-10-30T01:28:58.397Z,99.99
2023-10-30T01:29:58.430Z,99.99
2023-10-30T01:30:58.376Z,99.99
2023-10-30T01:31:58.358Z,99.99
2023-10-30T01:32:58.392Z,99.99
2023-10-30T01:33:58.491Z,99.99
2023-10-30T01:34:58.367Z,99.99
2023-10-30T01:35:58.327Z,99.99
2023-10-30T01:36:58.309Z,99.99
2023-10-30T01:37:58.305Z,99.99
2023-10-30T01:38:58.322Z,99.99
2023-10-30T01:39:58.279Z,99.99
2023-10-30T01:40:58.268Z,99.99
2023-10-30T01:41:58.265Z,99.99
2023-10-30T01:42:58.287Z,99.99
2023-10-30T01:43:58.270Z,99.99
2023-10-30T01:44:58.257Z,99.99
2023-10-30T01:45:58.219Z,99.99
2023-10-30T01:46:58.215Z,99.99
2023-10-30T01:47:58.211Z,99.99
2023-10-30T01:48:58.217Z,99.99
2023-10-30T01:49:58.218Z,99.99
2023-10-30T01:50:58.189Z,99.99
2023-10-30T01:51:58.152Z,99.99
2023-10-30T01:52:58.169Z,99.99
2023-10-30T01:53:58.159Z,99.99
2023-10-30T01:54:58.126Z,99.99
2023-10-30T01:55:58.113Z,99.99
2023-10-30T01:56:58.104Z,99.99
2023-10-30T01:57:58.113Z,99.99
2023-10-30T01:58:58.077Z,99.99
2023-10-30T01:59:58.078Z,99.99
2023-10-30T02:00:58.099Z,99.99
2023-10-30T02:01:58.062Z,99.99
2023-10-30T02:02:58.188Z,99.99
2023-10-30T02:03:58.079Z,99.99
2023-10-30T02:04:58.018Z,99.99
2023-10-30T02:05:58.017Z,99.99
2023-10-30T02:06:58.014Z,99.99
2023-10-30T02:07:57.979Z,99.99
2023-10-30T02:08:58.004Z,99.99
2023-10-30T02:09:58.007Z,99.99
2023-10-30T02:10:57.957Z,99.99
2023-10-30T02:11:57.956Z,99.99
2023-10-30T02:12:57.931Z,99.99
2023-10-30T02:13:57.981Z,99.99
2023-10-30T02:14:57.944Z,99.99
2023-10-30T02:15:57.943Z,99.99
2023-10-30T02:16:57.904Z,99.99
2023-10-30T02:17:57.883Z,99.99
2023-10-30T02:18:57.867Z,99.99
2023-10-30T02:19:57.855Z,99.99
2023-10-30T02:20:57.862Z,99.99
2023-10-30T02:21:57.837Z,99.99
2023-10-30T02:22:57.830Z,99.99
2023-10-30T02:23:57.816Z,99.99
2023-10-30T02:24:57.803Z,99.99
2023-10-30T02:25:57.809Z,99.99
2023-10-30T02:26:57.843Z,99.99
2023-10-30T02:27:57.768Z,99.99
2023-10-30T02:28:57.782Z,99.99
2023-10-30T02:29:57.834Z,99.99
2023-10-30T02:30:57.787Z,99.99
2023-10-30T02:31:57.766Z,99.99
2023-10-30T02:32:57.768Z,99.99
2023-10-30T02:33:57.790Z,99.99
2023-10-30T02:34:57.710Z,99.99
2023-10-30T02:35:57.702Z,99.99
2023-10-30T02:36:57.675Z,99.99
2023-10-30T02:37:57.689Z,99.99
2023-10-30T02:38:57.656Z,99.99
2023-10-30T02:39:57.663Z,99.99
2023-10-30T02:40:57.683Z,99.99
2023-10-30T02:41:57.615Z,99.99
2023-10-30T02:42:57.625Z,99.99
2023-10-30T02:43:57.618Z,99.99
2023-10-30T02:44:57.629Z,99.99
2023-10-30T02:45:57.719Z,99.99
2023-10-30T02:46:57.577Z,99.99
2023-10-30T02:47:57.572Z,99.99
2023-10-30T02:48:57.596Z,99.99
2023-10-30T02:49:57.552Z,99.99
2023-10-30T02:50:57.518Z,99.99
2023-10-30T02:51:57.522Z,99.99
2023-10-30T02:52:57.515Z,99.99
2023-10-30T02:53:57.511Z,99.99
2023-10-30T02:54:57.491Z,99.99
2023-10-30T02:55:57.512Z,99.99
2023-10-30T02:56:57.496Z,99.99
2023-10-30T02:57:57.470Z,99.99
2023-10-30T02:58:57.462Z,99.99
2023-10-30T02:59:57.424Z,99.99
2023-10-30T03:00:57.414Z,99.99
2023-10-30T03:01:57.403Z,99.99
2023-10-30T03:02:57.616Z,99.99
2023-10-30T03:03:57.607Z,99.99
2023-10-30T03:04:57.520Z,99.99
2023-10-30T03:05:57.356Z,99.99
2023-10-30T03:06:57.360Z,99.99
2023-10-30T03:07:57.358Z,99.99
2023-10-30T03:08:57.334Z,99.99
2023-10-30T03:09:57.317Z,99.99
2023-10-30T03:10:57.320Z,99.99
2023-10-30T03:11:57.356Z,99.99
2023-10-30T03:12:57.325Z,99.99
2023-10-30T03:13:57.280Z,99.99
2023-10-30T03:14:57.340Z,99.99
2023-10-30T03:15:57.419Z,99.99
2023-10-30T03:16:57.262Z,99.99
2023-10-30T03:17:57.343Z,99.99
2023-10-30T03:18:57.233Z,99.99
2023-10-30T03:19:57.219Z,99.99
2023-10-30T03:20:57.204Z,99.99
2023-10-30T03:21:57.229Z,99.99
2023-10-30T03:22:57.215Z,99.99
2023-10-30T03:23:57.172Z,99.99
2023-10-30T03:24:57.163Z,99.99
2023-10-30T03:25:57.181Z,99.99
2023-10-30T03:26:57.171Z,99.99
2023-10-30T03:27:57.132Z,99.99
2023-10-30T03:28:57.125Z,99.99
2023-10-30T03:29:57.102Z,99.99
2023-10-30T03:30:57.123Z,99.99
2023-10-30T03:31:57.073Z,99.99
2023-10-30T03:32:57.171Z,99.99
2023-10-30T03:33:57.132Z,99.99
2023-10-30T03:34:57.054Z,99.99
2023-10-30T03:35:57.056Z,99.99
2023-10-30T03:36:57.044Z,99.99
2023-10-30T03:37:57.040Z,99.99
2023-10-30T03:38:57.009Z,99.99
2023-10-30T03:39:57.027Z,99.99
2023-10-30T03:40:57.002Z,99.99
2023-10-30T03:41:56.983Z,99.99
2023-10-30T03:42:56.998Z,99.99
2023-10-30T03:43:56.964Z,99.99
2023-10-30T03:44:56.966Z,99.99
2023-10-30T03:45:57.045Z,99.99
2023-10-30T03:46:56.920Z,99.99
2023-10-30T03:47:56.935Z,99.99
2023-10-30T03:48:56.952Z,99.99
2023-10-30T03:49:56.904Z,99.99
2023-10-30T03:50:56.885Z,99.99
2023-10-30T03:51:56.884Z,99.99
2023-10-30T03:52:56.860Z,99.99
2023-10-30T03:53:56.872Z,99.99
2023-10-30T03:54:56.890Z,99.99
2023-10-30T03:55:56.824Z,99.99
2023-10-30T03:56:56.819Z,99.99
2023-10-30T03:57:56.830Z,99.99
2023-10-30T03:58:56.832Z,99.99
2023-10-30T03:59:56.790Z,99.99
2023-10-30T04:00:56.775Z,99.99
2023-10-30T04:01:56.772Z,99.99
2023-10-30T04:02:56.766Z,99.99
2023-10-30T04:03:56.811Z,99.99
2023-10-30T04:04:56.744Z,99.99
2023-10-30T04:05:56.719Z,99.99
2023-10-30T04:06:56.704Z,99.99
2023-10-30T04:07:56.732Z,99.99
2023-10-30T04:08:56.706Z,99.99
2023-10-30T04:09:56.689Z,99.99
2023-10-30T04:10:56.660Z,99.99
2023-10-30T04:11:56.661Z,99.99
2023-10-30T04:12:56.658Z,99.99
2023-10-30T04:13:56.641Z,99.99
2023-10-30T04:14:56.619Z,99.99
2023-10-30T04:15:56.624Z,99.99
2023-10-30T04:16:56.599Z,99.99
2023-10-30T04:17:56.649Z,99.99
2023-10-30T04:18:56.577Z,99.99
2023-10-30T04:19:56.572Z,99.99
2023-10-30T04:20:56.606Z,99.99
2023-10-30T04:21:56.639Z,99.99
2023-10-30T04:22:56.658Z,99.99
2023-10-30T04:23:56.529Z,99.99
2023-10-30T04:24:56.564Z,99.99
2023-10-30T04:25:56.517Z,99.99
2023-10-30T04:26:56.535Z,99.99
2023-10-30T04:27:56.504Z,99.99
2023-10-30T04:28:56.478Z,99.99
2023-10-30T04:29:56.484Z,99.99
2023-10-30T04:30:56.460Z,99.99
2023-10-30T04:31:56.550Z,99.99
2023-10-30T04:32:56.443Z,99.99
2023-10-30T04:33:56.423Z,99.99
2023-10-30T04:34:56.410Z,99.99
2023-10-30T04:35:56.429Z,99.99
2023-10-30T04:36:56.408Z,99.99
2023-10-30T04:37:56.417Z,99.99
2023-10-30T04:38:56.373Z,99.99
2023-10-30T04:39:56.399Z,99.99
2023-10-30T04:40:56.367Z,99.99
2023-10-30T04:41:56.359Z,99.99
2023-10-30T04:42:56.333Z,99.99
2023-10-30T04:43:56.331Z,99.99
2023-10-30T04:44:56.303Z,99.99
2023-10-30T04:45:56.363Z,99.99
2023-10-30T04:46:56.291Z,99.99
2023-10-30T04:47:56.282Z,99.99
2023-10-30T04:48:56.257Z,99.99
2023-10-30T04:49:56.287Z,99.99
2023-10-30T04:50:56.293Z,99.99
2023-10-30T04:51:56.252Z,99.99
2023-10-30T04:52:56.223Z,99.99
2023-10-30T04:53:56.209Z,99.99
2023-10-30T04:54:56.467Z,99.99
2023-10-30T04:55:56.190Z,99.99
2023-10-30T04:56:56.179Z,99.99
2023-10-30T04:57:56.163Z,99.99
2023-10-30T04:58:56.159Z,99.99
2023-10-30T04:59:56.160Z,99.99
2023-10-30T05:00:56.133Z,99.99
2023-10-30T05:01:56.212Z,99.99
2023-10-30T05:02:56.171Z,99.99
2023-10-30T05:03:56.260Z,99.99
2023-10-30T05:04:56.122Z,99.99
2023-10-30T05:05:56.096Z,99.99
2023-10-30T05:06:56.067Z,99.99
2023-10-30T05:07:56.070Z,99.99
2023-10-30T05:08:56.073Z,99.99
2023-10-30T05:09:56.086Z,99.99
2023-10-30T05:10:56.051Z,99.99
2023-10-30T05:11:56.040Z,99.99
2023-10-30T05:12:56.002Z,99.99
2023-10-30T05:13:56.071Z,99.99
2023-10-30T05:14:56.569Z,99.99
2023-10-30T05:15:56.102Z,99.99
2023-10-30T05:16:55.965Z,99.99
2023-10-30T05:17:56.039Z,99.99
2023-10-30T05:18:55.958Z,99.99
2023-10-30T05:19:55.963Z,99.99
2023-10-30T05:20:55.918Z,99.99
2023-10-30T05:21:55.929Z,99.99
2023-10-30T05:22:55.995Z,99.99
2023-10-30T05:23:55.901Z,99.99
2023-10-30T05:24:55.874Z,99.99
2023-10-30T05:25:55.898Z,99.99
2023-10-30T05:26:55.862Z,99.99
2023-10-30T05:27:56.000Z,99.99
2023-10-30T05:28:55.841Z,99.99
2023-10-30T05:29:55.865Z,99.99
2023-10-30T05:30:55.912Z,99.99
2023-10-30T05:31:56.472Z,99.99
2023-10-30T05:32:55.831Z,99.99
2023-10-30T05:33:55.837Z,99.99
2023-10-30T05:34:55.810Z,99.99
2023-10-30T05:35:55.764Z,99.99
2023-10-30T05:36:55.809Z,99.99
2023-10-30T05:37:55.758Z,99.99
2023-10-30T05:38:55.740Z,99.99
2023-10-30T05:39:55.816Z,99.99
2023-10-30T05:40:55.703Z,99.99
2023-10-30T05:41:55.729Z,99.99
2023-10-30T05:42:55.713Z,99.99
2023-10-30T05:43:55.679Z,99.99
2023-10-30T05:44:55.679Z,99.99
2023-10-30T05:45:55.920Z,99.99
2023-10-30T05:46:55.677Z,99.99
2023-10-30T05:47:55.721Z,99.99
2023-10-30T05:48:55.575Z,99.99
2023-10-30T05:49:57.416Z,99.99
2023-10-30T05:50:55.607Z,99.99
2023-10-30T05:51:55.606Z,99.99
2023-10-30T05:52:55.571Z,99.99
2023-10-30T05:53:55.523Z,99.99
2023-10-30T05:54:55.552Z,99.99
2023-10-30T05:55:55.612Z,99.99
2023-10-30T05:56:55.638Z,99.99
2023-10-30T05:57:55.637Z,99.99
2023-10-30T05:58:55.550Z,99.99
2023-10-30T05:59:55.573Z,99.99
2023-10-30T06:00:55.599Z,99.99
2023-10-30T06:01:55.620Z,99.99
2023-10-30T06:02:55.431Z,99.99
2023-10-30T06:03:55.459Z,99.99
2023-10-30T06:04:55.687Z,99.99
2023-10-30T06:05:55.423Z,99.99
2023-10-30T06:06:55.496Z,99.99
2023-10-30T06:07:55.363Z,99.99
2023-10-30T06:08:55.468Z,99.99
2023-10-30T06:09:55.400Z,99.99
2023-10-30T06:10:55.334Z,99.99
2023-10-30T06:11:55.331Z,99.99
2023-10-30T06:12:55.308Z,99.99
2023-10-30T06:13:55.460Z,99.99
2023-10-30T06:14:55.340Z,99.99
2023-10-30T06:15:55.339Z,99.99
2023-10-30T06:16:55.264Z,99.99
2023-10-30T06:17:55.316Z,99.99
2023-10-30T06:18:55.287Z,99.99
2023-10-30T06:19:55.245Z,99.99
2023-10-30T06:20:55.246Z,99.99
2023-10-30T06:21:55.277Z,99.99
2023-10-30T06:22:55.212Z,99.99
2023-10-30T06:23:55.215Z,99.99
2023-10-30T06:24:55.228Z,99.99
2023-10-30T06:25:55.183Z,99.99
2023-10-30T06:26:55.168Z,99.99
2023-10-30T06:27:55.213Z,99.99
2023-10-30T06:28:55.161Z,99.99
2023-10-30T06:29:55.143Z,99.99
2023-10-30T06:30:55.180Z,99.99
2023-10-30T06:31:55.129Z,99.99
2023-10-30T06:32:55.205Z,99.99
2023-10-30T06:33:55.124Z,99.99
2023-10-30T06:34:55.095Z,99.99
2023-10-30T06:35:55.067Z,99.99
2023-10-30T06:36:55.148Z,99.99
2023-10-30T06:37:55.090Z,99.99
2023-10-30T06:38:55.047Z,99.99
2023-10-30T06:39:55.066Z,99.99
2023-10-30T06:40:55.007Z,99.99
2023-10-30T06:41:55.035Z,99.99
2023-10-30T06:42:55.043Z,99.99
2023-10-30T06:43:55.002Z,99.99
2023-10-30T06:44:54.987Z,99.99
2023-10-30T06:45:55.009Z,99.99
2023-10-30T06:46:57.517Z,99.99
2023-10-30T06:47:55.038Z,99.99
2023-10-30T06:48:54.970Z,99.99
2023-10-30T06:49:54.916Z,99.99
2023-10-30T06:50:54.906Z,99.99
2023-10-30T06:51:54.990Z,99.99
2023-10-30T06:52:54.888Z,99.99
2023-10-30T06:53:54.886Z,99.99
2023-10-30T06:54:54.897Z,99.99
2023-10-30T06:55:54.871Z,99.99
2023-10-30T06:56:54.864Z,99.99
2023-10-30T06:57:54.855Z,99.99
2023-10-30T06:58:54.819Z,99.99
2023-10-30T06:59:54.819Z,99.99
2023-10-30T07:00:54.867Z,99.99
2023-10-30T07:01:54.809Z,99.99
2023-10-30T07:02:54.934Z,99.99
2023-10-30T07:03:54.830Z,99.99
2023-10-30T07:04:54.762Z,99.99
2023-10-30T07:05:54.774Z,99.99
2023-10-30T07:06:54.779Z,99.99
2023-10-30T07:07:54.746Z,99.99
2023-10-30T07:08:54.721Z,99.99
2023-10-30T07:09:54.797Z,99.99
2023-10-30T07:10:54.716Z,99.99
2023-10-30T07:11:54.688Z,99.99
2023-10-30T07:12:54.670Z,99.99
2023-10-30T07:13:54.670Z,99.99
2023-10-30T07:14:56.732Z,99.99
2023-10-30T07:15:54.694Z,99.99
2023-10-30T07:17:04.238Z,99.99
2023-10-30T07:17:54.653Z,99.99
2023-10-30T07:18:54.669Z,99.99
2023-10-30T07:19:54.610Z,99.99
2023-10-30T07:20:54.587Z,99.99
2023-10-30T07:21:54.628Z,99.99
2023-10-30T07:22:54.596Z,99.99
2023-10-30T07:23:54.577Z,99.99
2023-10-30T07:24:54.616Z,99.99
2023-10-30T07:25:54.529Z,99.99
2023-10-30T07:26:54.538Z,99.99
2023-10-30T07:27:54.568Z,99.99
2023-10-30T07:28:54.561Z,99.99
2023-10-30T07:29:54.508Z,99.99
2023-10-30T07:30:54.537Z,99.99
2023-10-30T07:31:54.499Z,99.99
2023-10-30T07:32:54.481Z,99.99
2023-10-30T07:33:55.083Z,99.99
2023-10-30T07:34:54.444Z,99.99
2023-10-30T07:35:54.420Z,99.99
2023-10-30T07:36:54.437Z,99.99
2023-10-30T07:37:54.472Z,99.99
2023-10-30T07:38:54.406Z,99.99
2023-10-30T07:39:54.470Z,99.99
2023-10-30T07:40:54.369Z,99.99
2023-10-30T07:41:54.360Z,99.99
2023-10-30T07:42:54.880Z,99.99
2023-10-30T07:43:54.346Z,99.99
2023-10-30T07:44:54.347Z,99.99
2023-10-30T07:45:54.356Z,99.99
2023-10-30T07:46:54.394Z,99.99
2023-10-30T07:47:54.392Z,99.99
2023-10-30T07:48:54.431Z,99.99
2023-10-30T07:49:54.276Z,99.99
2023-10-30T07:50:54.268Z,99.99
2023-10-30T07:51:54.328Z,99.99
2023-10-30T07:52:54.260Z,99.99
2023-10-30T07:53:54.239Z,99.99
2023-10-30T07:54:54.353Z,99.99
2023-10-30T07:55:54.208Z,99.99
2023-10-30T07:56:54.235Z,99.99
2023-10-30T07:57:54.271Z,99.99
2023-10-30T07:58:54.180Z,99.99
2023-10-30T07:59:54.172Z,99.99
2023-10-30T08:00:58.710Z,99.99
2023-10-30T08:01:54.270Z,99.99
2023-10-30T08:02:54.229Z,99.99
2023-10-30T08:03:54.223Z,99.99
2023-10-30T08:04:55.165Z,99.99
2023-10-30T08:05:54.131Z,99.99
2023-10-30T08:06:54.176Z,99.99
2023-10-30T08:07:54.110Z,99.99
2023-10-30T08:08:54.062Z,99.99
2023-10-30T08:09:54.103Z,99.99
2023-10-30T08:10:54.099Z,99.99
2023-10-30T08:11:54.049Z,99.99
2023-10-30T08:12:54.044Z,99.99
2023-10-30T08:13:54.025Z,99.99
2023-10-30T08:14:54.034Z,99.99
2023-10-30T08:15:54.049Z,99.99
2023-10-30T08:16:54.049Z,99.99
2023-10-30T08:17:54.041Z,99.99
2023-10-30T08:18:53.989Z,99.99
2023-10-30T08:19:53.959Z,99.99
2023-10-30T08:20:55.286Z,99.99
2023-10-30T08:21:53.973Z,99.99
2023-10-30T08:22:53.990Z,99.99
2023-10-30T08:23:53.914Z,99.99
2023-10-30T08:24:53.944Z,99.99
2023-10-30T08:25:53.899Z,99.99
2023-10-30T08:26:53.883Z,99.99
2023-10-30T08:27:53.919Z,99.99
2023-10-30T08:28:53.899Z,99.99
2023-10-30T08:29:53.861Z,99.99
2023-10-30T08:30:53.925Z,99.99
2023-10-30T08:31:53.857Z,99.99
2023-10-30T08:32:53.838Z,99.99
2023-10-30T08:33:53.954Z,99.99
2023-10-30T08:34:53.825Z,99.99
2023-10-30T08:35:53.783Z,99.99
2023-10-30T08:36:53.811Z,99.99
2023-10-30T08:37:53.781Z,99.99
2023-10-30T08:38:55.601Z,99.99
2023-10-30T08:39:53.836Z,99.99
2023-10-30T08:40:53.737Z,99.99
2023-10-30T08:41:53.747Z,99.99
2023-10-30T08:42:53.796Z,99.99
2023-10-30T08:43:54.309Z,99.99
2023-10-30T08:44:53.774Z,99.99
2023-10-30T08:45:53.704Z,99.99
2023-10-30T08:46:53.732Z,99.99
2023-10-30T08:47:58.909Z,99.99
2023-10-30T08:48:53.711Z,99.99
2023-10-30T08:49:53.642Z,99.99
2023-10-30T08:50:53.632Z,99.99
2023-10-30T08:52:03.666Z,99.99
2023-10-30T08:52:53.638Z,99.99
2023-10-30T08:53:53.668Z,99.99
2023-10-30T08:54:53.621Z,99.99
2023-10-30T08:55:53.577Z,99.99
2023-10-30T08:56:58.334Z,99.99
2023-10-30T08:57:53.697Z,99.99
2023-10-30T08:58:53.585Z,99.99
2023-10-30T08:59:53.527Z,99.99
2023-10-30T09:00:53.545Z,99.99
2023-10-30T09:01:53.566Z,99.99
2023-10-30T09:02:53.568Z,99.99
2023-10-30T09:03:53.654Z,99.99
2023-10-30T09:04:53.632Z,99.99
2023-10-30T09:05:53.563Z,99.99
2023-10-30T09:06:53.578Z,99.99
2023-10-30T09:07:53.442Z,99.99
2023-10-30T09:08:53.437Z,99.99
2023-10-30T09:09:53.462Z,99.99
2023-10-30T09:10:53.413Z,99.99
2023-10-30T09:11:53.422Z,99.99
2023-10-30T09:12:53.474Z,99.99
2023-10-30T09:13:53.389Z,99.99
2023-10-30T09:14:53.370Z,99.99
2023-10-30T09:15:53.406Z,99.99
2023-10-30T09:16:53.370Z,99.99
2023-10-30T09:17:53.371Z,99.99
2023-10-30T09:18:53.369Z,99.99
2023-10-30T09:19:53.308Z,99.99
2023-10-30T09:20:53.339Z,99.99
2023-10-30T09:21:55.471Z,99.99
2023-10-30T09:22:53.283Z,99.99
2023-10-30T09:23:53.260Z,99.99
2023-10-30T09:24:53.281Z,99.99
2023-10-30T09:25:53.260Z,99.99
2023-10-30T09:26:53.241Z,99.99
2023-10-30T09:27:53.299Z,99.99
2023-10-30T09:28:53.222Z,99.99
2023-10-30T09:29:53.211Z,99.99
2023-10-30T09:30:53.245Z,99.99
2023-10-30T09:31:53.362Z,99.99
2023-10-30T09:32:53.321Z,99.99
2023-10-30T09:33:53.327Z,99.99
2023-10-30T09:34:53.157Z,99.99
2023-10-30T09:35:53.149Z,99.99
2023-10-30T09:36:53.181Z,99.99
2023-10-30T09:37:53.130Z,99.99
2023-10-30T09:38:53.149Z,99.99
2023-10-30T09:39:53.344Z,99.99
2023-10-30T09:40:53.143Z,99.99
2023-10-30T09:41:53.116Z,99.99
2023-10-30T09:42:53.295Z,99.99
2023-10-30T09:43:53.042Z,99.99
2023-10-30T09:44:53.057Z,99.99
2023-10-30T09:45:53.096Z,99.99
2023-10-30T09:46:53.016Z,99.99
2023-10-30T09:47:53.063Z,99.99
2023-10-30T09:48:53.027Z,99.99
2023-10-30T09:49:53.011Z,99.99
2023-10-30T09:50:53.076Z,99.99
2023-10-30T09:51:53.005Z,99.52
2023-10-30T09:52:52.971Z,99.99
2023-10-30T09:53:52.979Z,99.99
2023-10-30T09:54:53.015Z,99.99
2023-10-30T09:55:52.970Z,99.99
2023-10-30T09:56:52.932Z,99.99
2023-10-30T09:57:52.941Z,99.99
2023-10-30T09:58:52.927Z,99.99
2023-10-30T09:59:52.910Z,99.99
2023-10-30T10:00:52.981Z,99.99
2023-10-30T10:01:52.963Z,99.99
2023-10-30T10:02:53.024Z,99.99
2023-10-30T10:03:52.977Z,99.99
2023-10-30T10:04:52.942Z,99.99
2023-10-30T10:05:52.817Z,99.99
2023-10-30T10:06:52.819Z,99.99
2023-10-30T10:07:52.816Z,99.99
2023-10-30T10:08:52.801Z,99.99
2023-10-30T10:09:52.802Z,99.52
2023-10-30T10:10:52.767Z,98.80
2023-10-30T10:11:52.786Z,99.92
2023-10-30T10:12:52.883Z,99.92
2023-10-30T10:14:04.644Z,98.09
2023-10-30T10:14:52.739Z,98.50
2023-10-30T10:15:52.810Z,99.99
2023-10-30T10:16:52.770Z,99.27
2023-10-30T10:17:52.782Z,97.44
2023-10-30T10:18:52.729Z,97.64
2023-10-30T10:19:52.737Z,97.03
2023-10-30T10:20:52.794Z,97.03
2023-10-30T10:21:52.849Z,97.84
2023-10-30T10:22:52.668Z,96.68
2023-10-30T10:23:52.669Z,94.60
2023-10-30T10:24:52.710Z,91.32
2023-10-30T10:25:52.611Z,89.55
2023-10-30T10:26:52.627Z,88.54
2023-10-30T10:27:52.711Z,89.59
2023-10-30T10:28:52.650Z,90.35
2023-10-30T10:29:52.603Z,92.12
2023-10-30T10:30:52.598Z,94.05
2023-10-30T10:31:52.589Z,93.79
2023-10-30T10:32:52.608Z,94.80
2023-10-30T10:33:52.607Z,93.13
2023-10-30T10:34:52.842Z,91.82
2023-10-30T10:35:52.549Z,91.71
2023-10-30T10:36:52.662Z,91.36
2023-10-30T10:37:52.488Z,91.77
2023-10-30T10:38:52.481Z,88.38
2023-10-30T10:39:52.717Z,88.62
2023-10-30T10:40:52.480Z,90.45
2023-10-30T10:41:52.448Z,91.87
2023-10-30T10:42:52.521Z,91.61
2023-10-30T10:43:52.466Z,90.55
2023-10-30T10:44:52.413Z,89.64
2023-10-30T10:45:52.484Z,88.36
2023-10-30T10:46:52.451Z,88.21
2023-10-30T10:47:52.409Z,87.87
2023-10-30T10:48:52.401Z,87.63
2023-10-30T10:49:52.447Z,86.39
2023-10-30T10:50:52.362Z,88.21
2023-10-30T10:51:52.362Z,86.27
2023-10-30T10:52:52.327Z,84.81
2023-10-30T10:53:52.333Z,83.92
2023-10-30T10:54:52.360Z,82.68
2023-10-30T10:55:52.285Z,85.74
2023-10-30T10:56:52.344Z,86.74
2023-10-30T10:57:52.379Z,87.65
2023-10-30T10:58:52.269Z,90.59
2023-10-30T10:59:52.279Z,91.25
2023-10-30T11:00:52.277Z,92.10
2023-10-30T11:01:52.430Z,92.57
2023-10-30T11:02:52.315Z,92.16
2023-10-30T11:03:52.389Z,90.74
2023-10-30T11:04:52.211Z,89.84
2023-10-30T11:05:52.178Z,89.59
2023-10-30T11:06:52.232Z,88.48
2023-10-30T11:07:52.287Z,88.18
2023-10-30T11:08:52.233Z,87.69
2023-10-30T11:09:52.396Z,84.41
2023-10-30T11:10:52.188Z,83.68
2023-10-30T11:11:52.139Z,79.21
2023-10-30T11:12:52.176Z,79.75
2023-10-30T11:13:52.115Z,75.40
2023-10-30T11:14:52.088Z,70.79
2023-10-30T11:15:52.115Z,67.45
2023-10-30T11:16:52.177Z,66.14
2023-10-30T11:17:52.089Z,66.05
2023-10-30T11:18:52.143Z,64.62
2023-10-30T11:19:52.030Z,64.01
2023-10-30T11:20:52.026Z,66.61
2023-10-30T11:21:52.101Z,65.62
2023-10-30T11:22:52.073Z,64.12
2023-10-30T11:23:52.015Z,62.79
2023-10-30T11:24:52.078Z,59.81
2023-10-30T11:25:51.983Z,59.55
2023-10-30T11:26:51.956Z,56.98
2023-10-30T11:27:52.007Z,59.30
2023-10-30T11:28:51.997Z,61.95
2023-10-30T11:29:51.922Z,62.09
2023-10-30T11:30:51.941Z,59.69
2023-10-30T11:31:51.998Z,59.66
2023-10-30T11:32:52.479Z,61.05
2023-10-30T11:33:51.911Z,62.01
2023-10-30T11:34:51.948Z,62.28
2023-10-30T11:35:51.874Z,61.18
2023-10-30T11:36:51.959Z,62.90
2023-10-30T11:37:51.853Z,66.24
2023-10-30T11:38:51.837Z,68.08
2023-10-30T11:39:51.865Z,68.71
2023-10-30T11:40:51.811Z,66.41
2023-10-30T11:41:51.826Z,66.98
2023-10-30T11:42:51.812Z,65.33
2023-10-30T11:43:51.778Z,67.98
2023-10-30T11:44:51.766Z,65.44
2023-10-30T11:45:51.800Z,66.08
2023-10-30T11:46:52.055Z,64.15
2023-10-30T11:47:51.733Z,62.38
2023-10-30T11:48:51.783Z,62.54
2023-10-30T11:49:51.710Z,63.28
2023-10-30T11:50:51.813Z,63.40
2023-10-30T11:51:51.727Z,67.03
2023-10-30T11:52:51.689Z,69.15
2023-10-30T11:53:51.667Z,68.38
2023-10-30T11:54:52.156Z,66.81
2023-10-30T11:55:51.668Z,66.71
2023-10-30T11:56:51.678Z,65.37
2023-10-30T11:57:51.713Z,66.64
2023-10-30T11:58:51.615Z,65.28
2023-10-30T11:59:51.628Z,63.45
2023-10-30T12:00:51.733Z,63.75
2023-10-30T12:01:51.600Z,66.24
2023-10-30T12:02:51.601Z,68.18
2023-10-30T12:03:51.700Z,69.12
2023-10-30T12:04:51.867Z,68.41
2023-10-30T12:05:51.569Z,70.59
2023-10-30T12:06:51.570Z,69.59
2023-10-30T12:07:51.514Z,70.09
2023-10-30T12:08:51.526Z,68.65
2023-10-30T12:09:51.555Z,69.62
2023-10-30T12:10:51.517Z,68.85
2023-10-30T12:11:51.479Z,69.05
2023-10-30T12:12:51.507Z,70.53
2023-10-30T12:13:51.466Z,69.09
2023-10-30T12:14:51.564Z,67.21
2023-10-30T12:15:51.466Z,66.81
2023-10-30T12:16:51.545Z,67.44
2023-10-30T12:17:51.497Z,68.48
2023-10-30T12:18:51.452Z,67.27
2023-10-30T12:19:51.393Z,67.71
2023-10-30T12:20:51.382Z,68.51
2023-10-30T12:21:51.517Z,69.15
2023-10-30T12:22:51.369Z,69.22
2023-10-30T12:23:51.359Z,70.16
2023-10-30T12:24:51.666Z,69.18
2023-10-30T12:25:51.394Z,70.70
2023-10-30T12:26:51.325Z,70.90
2023-10-30T12:27:51.321Z,69.49
2023-10-30T12:28:51.348Z,71.23
2023-10-30T12:29:51.276Z,71.47
2023-10-30T12:30:51.385Z,71.97
2023-10-30T12:31:51.291Z,69.29
2023-10-30T12:32:51.314Z,71.00
2023-10-30T12:33:51.290Z,72.47
2023-10-30T12:34:53.482Z,69.69
2023-10-30T12:35:51.226Z,72.44
2023-10-30T12:36:51.282Z,73.14
2023-10-30T12:37:51.246Z,71.13
2023-10-30T12:38:51.180Z,71.17
2023-10-30T12:39:51.200Z,72.00
2023-10-30T12:40:51.315Z,72.81
2023-10-30T12:41:51.216Z,73.11
2023-10-30T12:42:51.200Z,72.61
2023-10-30T12:43:51.135Z,73.75
2023-10-30T12:44:51.130Z,74.80
2023-10-30T12:45:51.166Z,75.44
2023-10-30T12:46:51.161Z,75.68
2023-10-30T12:47:51.216Z,77.64
2023-10-30T12:48:51.119Z,77.73
2023-10-30T12:49:51.092Z,77.64
2023-10-30T12:50:51.090Z,79.35
2023-10-30T12:51:51.170Z,78.14
2023-10-30T12:52:51.042Z,78.95